Time;durP1;ratioP1;P1;durP2;ratioP2;P2;SDS_P1;SDS_P2;PMS_P1;PMS_P2;Temp;Humidity;BMP_temperature;BMP_pressure;BME280_temperature;BME280_humidity;BME280_pressure;Samples;Min_cycle;Max_cycle;Signal;HPM_P1;HPM_P2
2023/10/29 00:01:37;;;;;;;8.32;2.97;;;;;;;12.38;100.00;98881.50;6077156;19;20669;-72
2023/10/29 00:03:42;;;;;;;7.18;2.63;;;;;;;12.41;100.00;98881.25;6080419;19;20576;-71
2023/10/29 00:05:48;;;;;;;9.10;2.85;;;;;;;12.41;100.00;98891.81;6079639;19;20019;-71
2023/10/29 00:07:53;;;;;;;5.55;2.40;;;;;;;12.48;100.00;98879.78;6077072;19;20515;-70
2023/10/29 00:10:00;;;;;;;4.70;2.47;;;;;;;12.58;100.00;98874.63;6077783;19;19999;-69
2023/10/29 00:12:06;;;;;;;3.28;2.15;;;;;;;12.64;100.00;98869.72;6077847;19;20522;-69
2023/10/29 00:14:15;;;;;;;10.35;2.72;;;;;;;12.69;100.00;98864.94;6079383;19;20021;-70
2023/10/29 00:16:20;;;;;;;6.03;2.22;;;;;;;12.76;100.00;98873.16;6079068;19;20014;-70
2023/10/29 00:18:25;;;;;;;7.57;2.47;;;;;;;12.83;100.00;98881.41;6072991;19;20013;-71
2023/10/29 00:20:30;;;;;;;8.88;2.60;;;;;;;12.87;100.00;98872.28;6076351;19;20007;-71
2023/10/29 00:22:36;;;;;;;4.28;2.20;;;;;;;12.90;100.00;98872.03;6079739;19;21611;-71
2023/10/29 00:24:39;;;;;;;5.55;2.30;;;;;;;13.05;100.00;98864.66;6077801;19;20039;-71
2023/10/29 00:26:43;;;;;;;5.45;2.53;;;;;;;13.02;100.00;98854.38;6081437;19;20031;-72
2023/10/29 00:28:48;;;;;;;7.50;2.80;;;;;;;12.96;100.00;98848.66;6080505;19;20007;-72
2023/10/29 00:30:57;;;;;;;6.65;2.45;;;;;;;13.09;100.00;98853.75;6080144;19;20014;-70
2023/10/29 00:33:02;;;;;;;5.15;2.55;;;;;;;13.05;100.00;98840.94;6079064;19;20014;-70
2023/10/29 00:35:11;;;;;;;8.77;2.72;;;;;;;13.10;100.00;98833.50;6079248;19;20085;-72
2023/10/29 00:37:20;;;;;;;5.18;2.20;;;;;;;13.19;100.00;98824.78;6076419;19;20003;-71
2023/10/29 00:39:22;;;;;;;6.20;2.40;;;;;;;13.23;100.00;98830.66;6079611;19;20023;-71
2023/10/29 00:41:28;;;;;;;12.98;2.75;;;;;;;13.24;100.00;98829.69;6079744;19;20018;-71
2023/10/29 00:45:45;;;;;;;6.00;2.20;;;;;;;13.24;100.00;98827.88;6075810;19;20023;-71
2023/10/29 00:47:57;;;;;;;4.00;1.90;;;;;;;13.22;100.00;98823.69;6077757;19;20010;-71
2023/10/29 00:50:02;;;;;;;7.47;3.10;;;;;;;13.32;100.00;98835.19;6069275;19;20003;-70
2023/10/29 00:52:08;;;;;;;6.05;2.05;;;;;;;13.32;100.00;98822.00;6078770;19;20014;-71
2023/10/29 00:54:13;;;;;;;3.90;2.50;;;;;;;13.29;100.00;98823.09;6077412;19;20002;-71
2023/10/29 00:56:20;;;;;;;9.15;2.60;;;;;;;13.43;100.00;98821.94;6081055;19;20026;-71
2023/10/29 00:58:26;;;;;;;4.47;2.05;;;;;;;13.39;100.00;98820.53;6077454;19;20696;-71
2023/10/29 01:00:31;;;;;;;4.75;2.03;;;;;;;13.35;100.00;98822.59;6076901;19;20018;-71
2023/10/29 01:02:36;;;;;;;2.03;1.60;;;;;;;13.31;100.00;98813.25;6078446;19;20006;-72
2023/10/29 01:04:45;;;;;;;6.15;2.15;;;;;;;13.26;100.00;98817.22;6077864;19;20033;-71
2023/10/29 01:06:50;;;;;;;4.32;2.03;;;;;;;13.32;100.00;98822.88;6076897;19;20006;-70
2023/10/29 01:08:56;;;;;;;6.13;2.17;;;;;;;13.24;100.00;98813.88;6075768;19;20006;-71
2023/10/29 01:11:01;;;;;;;4.53;1.90;;;;;;;13.31;100.00;98815.06;6077446;19;20002;-71
2023/10/29 01:13:03;;;;;;;5.63;1.88;;;;;;;13.27;100.00;98805.72;6078325;19;20006;-72
2023/10/29 01:15:09;;;;;;;4.75;2.22;;;;;;;13.36;100.00;98811.06;6077485;19;20002;-70
2023/10/29 01:17:17;;;;;;;4.18;2.20;;;;;;;13.34;100.00;98828.00;6076715;19;20014;-72
2023/10/29 01:19:22;;;;;;;4.95;2.65;;;;;;;13.32;100.00;98814.09;6073034;19;20584;-72
2023/10/29 01:21:28;;;;;;;4.75;2.00;;;;;;;13.35;100.00;98804.13;6075392;19;20516;-70
2023/10/29 01:23:36;;;;;;;6.75;2.35;;;;;;;13.29;100.00;98804.63;6077861;19;20002;-70
2023/10/29 01:25:41;;;;;;;4.30;1.92;;;;;;;13.36;100.00;98804.97;6076942;19;20002;-70
2023/10/29 01:27:46;;;;;;;2.75;2.15;;;;;;;13.46;100.00;98805.84;6077862;19;20018;-71
2023/10/29 01:29:49;;;;;;;3.70;2.03;;;;;;;13.39;100.00;98799.41;6077239;19;20006;-69
2023/10/29 01:31:54;;;;;;;5.32;2.05;;;;;;;13.43;100.00;98799.97;6077644;19;20006;-69
2023/10/29 01:33:59;;;;;;;5.63;1.80;;;;;;;13.44;100.00;98789.31;6078596;19;20006;-70
2023/10/29 01:36:04;;;;;;;5.40;2.00;;;;;;;13.38;100.00;98784.56;6074439;19;20010;-69
2023/10/29 01:38:09;;;;;;;3.20;1.70;;;;;;;13.35;100.00;98776.91;6076223;19;20019;-70
2023/10/29 01:40:15;;;;;;;5.65;1.83;;;;;;;13.38;100.00;98772.22;6077537;19;20006;-69
2023/10/29 01:42:17;;;;;;;4.43;1.85;;;;;;;13.37;100.00;98775.78;6077811;19;20106;-70
2023/10/29 01:44:22;;;;;;;4.68;1.83;;;;;;;13.33;100.00;98768.28;6077111;19;20014;-70
2023/10/29 01:46:27;;;;;;;4.10;1.75;;;;;;;13.42;100.00;98779.84;6078800;19;20034;-70
2023/10/29 01:48:33;;;;;;;3.72;1.70;;;;;;;13.40;100.00;98793.16;6075085;19;20006;-71
2023/10/29 01:50:38;;;;;;;11.10;2.10;;;;;;;13.44;100.00;98791.94;6072580;19;20093;-70
2023/10/29 01:52:43;;;;;;;2.85;1.50;;;;;;;13.38;100.00;98803.03;6074451;19;20011;-70
2023/10/29 01:54:51;;;;;;;6.55;1.92;;;;;;;13.30;100.00;98805.50;6077167;19;20022;-71
2023/10/29 01:56:56;;;;;;;1.80;1.63;;;;;;;13.33;100.00;98807.88;6078096;19;20014;-70
2023/10/29 01:59:01;;;;;;;3.10;1.60;;;;;;;13.25;100.00;98818.19;6083302;19;20011;-71
2023/10/29 02:01:11;;;;;;;3.10;1.70;;;;;;;13.22;100.00;98802.59;6082244;19;20027;-71
2023/10/29 02:03:16;;;;;;;4.15;1.90;;;;;;;13.20;100.00;98823.03;6083269;19;20006;-71
2023/10/29 02:05:21;;;;;;;2.40;1.50;;;;;;;13.05;100.00;98823.31;6082571;19;20007;-70
2023/10/29 02:07:26;;;;;;;3.67;1.30;;;;;;;12.79;100.00;98835.16;6083543;19;20021;-70
2023/10/29 02:09:31;;;;;;;3.38;1.58;;;;;;;12.66;100.00;98812.44;6082803;19;20014;-70
2023/10/29 02:11:39;;;;;;;3.25;1.20;;;;;;;12.53;100.00;98801.22;6076716;19;20011;-71
2023/10/29 02:13:45;;;;;;;1.77;1.17;;;;;;;12.33;100.00;98807.28;6080389;19;20010;-71
2023/10/29 02:15:50;;;;;;;3.25;1.40;;;;;;;12.18;100.00;98775.13;6082800;19;20029;-70
2023/10/29 02:17:55;;;;;;;2.42;1.10;;;;;;;12.08;100.00;98775.00;6081930;19;20010;-71
2023/10/29 02:20:00;;;;;;;2.45;1.00;;;;;;;11.92;100.00;98769.28;6078067;19;20605;-72
2023/10/29 02:22:08;;;;;;;1.92;1.17;;;;;;;11.77;100.00;98774.78;6077924;19;20518;-71
2023/10/29 02:24:13;;;;;;;1.45;1.30;;;;;;;11.64;100.00;98774.91;6079887;19;20125;-71
2023/10/29 02:26:19;;;;;;;2.72;1.40;;;;;;;11.63;100.00;98765.31;6081818;19;20705;-70
2023/10/29 02:28:24;;;;;;;1.85;1.05;;;;;;;11.54;100.00;98778.38;6077019;19;20006;-69
2023/10/29 02:30:29;;;;;;;1.10;0.65;;;;;;;11.54;100.00;98778.38;6080769;19;20014;-70
2023/10/29 02:32:34;;;;;;;1.75;1.08;;;;;;;11.47;100.00;98772.72;6082970;19;20522;-70
2023/10/29 02:34:39;;;;;;;1.77;0.90;;;;;;;11.45;100.00;98784.31;6081003;19;20553;-71
2023/10/29 02:36:44;;;;;;;4.43;1.20;;;;;;;11.39;100.00;98778.59;6079734;19;20909;-70
2023/10/29 02:38:57;;;;;;;3.15;1.83;;;;;;;11.34;100.00;98761.47;6080676;19;20012;-71
2023/10/29 02:41:03;;;;;;;4.55;1.25;;;;;;;11.40;100.00;98774.16;6081360;19;20038;-71
2023/10/29 02:43:08;;;;;;;4.57;1.40;;;;;;;11.36;100.00;98768.31;6080179;19;20007;-70
2023/10/29 02:45:13;;;;;;;2.38;1.45;;;;;;;11.34;100.00;98775.47;6081417;19;20006;-72
2023/10/29 02:47:18;;;;;;;4.20;1.33;;;;;;;11.31;100.00;98759.94;6079737;19;20434;-72
2023/10/29 02:49:23;;;;;;;3.88;1.70;;;;;;;11.30;100.00;98771.41;6079444;19;20030;-71
2023/10/29 02:51:28;;;;;;;4.90;1.50;;;;;;;11.37;100.00;98782.28;6080144;19;20066;-71
2023/10/29 02:53:34;;;;;;;1.42;1.20;;;;;;;11.33;100.00;98778.22;6078556;19;20010;-70
2023/10/29 02:55:41;;;;;;;1.20;1.10;;;;;;;11.29;100.00;98788.13;6082766;19;20006;-71
2023/10/29 02:57:46;;;;;;;7.40;2.40;;;;;;;11.36;100.00;98783.25;6079309;19;20426;-70
2023/10/29 02:59:51;;;;;;;2.30;1.42;;;;;;;11.36;100.00;98778.00;6082032;19;20012;-72
2023/10/29 03:01:57;;;;;;;2.40;1.70;;;;;;;11.49;100.00;98772.63;6083042;19;20066;-71
2023/10/29 03:04:04;;;;;;;1.88;1.40;;;;;;;11.58;100.00;98780.63;6080527;19;20046;-70
2023/10/29 03:06:10;;;;;;;2.28;1.45;;;;;;;11.59;100.00;98768.31;6078380;19;20757;-70
2023/10/29 03:08:15;;;;;;;1.80;1.70;;;;;;;11.67;100.00;98776.47;6080446;19;20549;-71
2023/10/29 03:10:20;;;;;;;5.63;1.65;;;;;;;11.74;100.00;98775.03;6075028;19;20328;-71
2023/10/29 03:12:28;;;;;;;6.85;1.73;;;;;;;11.93;100.00;98781.47;6082381;19;20006;-71
2023/10/29 03:14:35;;;;;;;5.45;1.98;;;;;;;11.91;100.00;98776.34;6080628;19;20077;-71
2023/10/29 03:16:41;;;;;;;1.55;1.42;;;;;;;11.96;100.00;98782.09;6079545;19;19998;-71
2023/10/29 03:18:47;;;;;;;3.22;1.75;;;;;;;11.96;100.00;98783.91;6078259;19;20006;-72
2023/10/29 03:20:52;;;;;;;3.55;1.77;;;;;;;12.01;100.00;98784.38;6075792;19;19999;-71
2023/10/29 03:22:57;;;;;;;4.57;1.60;;;;;;;12.02;100.00;98780.75;6081235;19;20012;-71
2023/10/29 03:25:02;;;;;;;6.35;1.63;;;;;;;12.03;100.00;98782.44;6080593;19;20006;-71
2023/10/29 03:27:08;;;;;;;6.15;1.65;;;;;;;11.98;100.00;98781.94;6078833;19;20011;-71
2023/10/29 03:29:16;;;;;;;3.60;1.83;;;;;;;12.11;100.00;98795.00;6082743;19;20016;-71
2023/10/29 03:31:23;;;;;;;5.32;1.77;;;;;;;12.22;100.00;98773.91;6079361;19;20017;-71
2023/10/29 03:33:28;;;;;;;5.57;1.40;;;;;;;12.16;100.00;98780.50;6081807;19;20034;-71
2023/10/29 03:35:32;;;;;;;5.63;1.70;;;;;;;12.27;100.00;98780.50;6080951;19;20006;-71
2023/10/29 03:37:37;;;;;;;3.50;1.67;;;;;;;12.34;100.00;98791.34;6080735;19;20006;-72
2023/10/29 03:39:42;;;;;;;3.72;2.15;;;;;;;12.28;100.00;98782.16;6079718;19;20009;-71
2023/10/29 03:41:49;;;;;;;4.90;1.60;;;;;;;12.31;100.00;98781.06;6081313;19;19998;-71
2023/10/29 03:43:54;;;;;;;4.68;1.58;;;;;;;12.32;100.00;98795.06;6078456;19;20006;-71
2023/10/29 03:46:02;;;;;;;4.07;1.73;;;;;;;12.41;100.00;98778.53;6079522;19;20099;-71
2023/10/29 03:48:05;;;;;;;6.45;2.38;;;;;;;12.32;100.00;98772.19;6081785;19;20041;-71
2023/10/29 03:50:11;;;;;;;5.15;1.60;;;;;;;12.36;100.00;98775.44;6070535;19;21283;-71
2023/10/29 03:52:16;;;;;;;6.60;1.63;;;;;;;12.44;100.00;98780.91;6078382;19;20046;-71
2023/10/29 03:54:21;;;;;;;5.90;1.98;;;;;;;12.45;100.00;98786.06;6078696;19;20023;-71
2023/10/29 03:56:23;;;;;;;4.25;1.38;;;;;;;12.51;100.00;98788.19;6079533;19;20074;-71
2023/10/29 03:58:28;;;;;;;4.32;1.52;;;;;;;12.52;100.00;98800.41;6077597;19;20089;-71
2023/10/29 04:00:33;;;;;;;5.97;1.58;;;;;;;12.52;100.00;98789.88;6079624;19;20027;-71
2023/10/29 04:02:41;;;;;;;3.75;1.35;;;;;;;12.53;100.00;98806.50;6079047;19;20002;-70
2023/10/29 04:04:46;;;;;;;8.65;1.83;;;;;;;12.58;100.00;98809.59;6079889;19;20036;-72
2023/10/29 04:07:11;;;;;;;5.28;1.65;;;;;;;12.60;100.00;98812.13;6080874;19;20200;-71
2023/10/29 04:09:19;;;;;;;4.65;1.58;;;;;;;12.56;100.00;98808.91;6077515;19;20007;-71
2023/10/29 04:11:24;;;;;;;3.88;1.42;;;;;;;12.57;100.00;98825.56;6076909;19;20007;-71
2023/10/29 04:13:27;;;;;;;4.40;1.65;;;;;;;12.58;100.00;98840.38;6079581;19;20014;-71
2023/10/29 04:15:33;;;;;;;3.38;1.73;;;;;;;12.63;100.00;98838.22;6080376;19;20303;-72
2023/10/29 04:17:40;;;;;;;4.30;1.48;;;;;;;12.57;100.00;98842.19;6079961;19;20006;-72
2023/10/29 04:19:45;;;;;;;2.40;1.60;;;;;;;12.65;100.00;98821.31;6076699;19;20017;-72
2023/10/29 04:21:50;;;;;;;3.25;1.80;;;;;;;12.58;100.00;98820.13;6074301;19;20003;-71
2023/10/29 04:23:57;;;;;;;6.15;1.45;;;;;;;12.64;100.00;98830.19;6078405;19;20026;-71
2023/10/29 04:26:02;;;;;;;8.27;1.65;;;;;;;12.58;100.00;98827.22;6080985;19;20014;-70
2023/10/29 04:28:07;;;;;;;4.28;1.40;;;;;;;12.56;100.00;98830.00;6078916;19;20486;-71
2023/10/29 04:30:13;;;;;;;3.35;2.42;;;;;;;12.47;100.00;98842.09;6079281;19;20006;-72
2023/10/29 04:32:16;;;;;;;3.15;1.50;;;;;;;12.48;100.00;98842.91;6077727;19;20600;-71
2023/10/29 04:34:23;;;;;;;4.18;1.55;;;;;;;12.31;100.00;98854.81;6078443;19;20728;-70
2023/10/29 04:36:28;;;;;;;3.85;1.27;;;;;;;12.20;100.00;98846.94;6081412;19;20014;-71
2023/10/29 04:38:36;;;;;;;6.65;1.77;;;;;;;12.11;100.00;98851.09;6077297;19;21121;-71
2023/10/29 04:40:41;;;;;;;7.43;2.00;;;;;;;12.02;100.00;98857.94;6079791;19;20032;-71
2023/10/29 04:42:46;;;;;;;2.08;1.52;;;;;;;11.99;100.00;98867.88;6080374;19;20002;-70
2023/10/29 04:44:51;;;;;;;2.22;1.40;;;;;;;11.92;100.00;98866.69;6076275;19;20010;-70
2023/10/29 04:46:57;;;;;;;4.53;1.42;;;;;;;11.88;100.00;98852.94;6079662;19;20489;-72
2023/10/29 04:49:02;;;;;;;2.75;1.17;;;;;;;11.88;100.00;98881.03;6076487;19;20491;-70
2023/10/29 04:51:10;;;;;;;6.90;1.45;;;;;;;11.95;100.00;98863.78;6074383;19;20014;-70
2023/10/29 04:53:15;;;;;;;4.65;1.40;;;;;;;11.97;100.00;98873.25;6073358;19;20014;-70
2023/10/29 04:55:23;;;;;;;1.23;1.08;;;;;;;11.99;100.00;98855.56;6080317;19;20390;-69
2023/10/29 04:57:28;;;;;;;4.32;1.80;;;;;;;12.00;100.00;98856.38;6079252;19;20023;-71
2023/10/29 04:59:44;;;;;;;5.47;1.30;;;;;;;12.01;100.00;98863.34;6079438;19;20522;-70
2023/10/29 05:01:49;;;;;;;3.65;1.15;;;;;;;12.08;100.00;98867.16;6080111;19;20244;-71
2023/10/29 05:03:54;;;;;;;4.15;1.50;;;;;;;12.08;100.00;98877.69;6079216;19;20028;-71
2023/10/29 05:05:59;;;;;;;3.90;1.73;;;;;;;12.04;100.00;98861.28;6077771;19;20002;-71
2023/10/29 05:08:07;;;;;;;4.68;1.65;;;;;;;12.08;100.00;98846.94;6078007;19;20103;-71
2023/10/29 05:12:37;;;;;;;9.32;1.88;;;;;;;12.07;100.00;98863.69;5973016;19;2004750;-72
2023/10/29 05:14:42;;;;;;;6.07;1.35;;;;;;;12.10;100.00;98867.03;6078204;19;20002;-70
2023/10/29 05:16:52;;;;;;;4.65;2.00;;;;;;;12.07;100.00;98873.38;6076846;19;20034;-70
2023/10/29 05:19:01;;;;;;;4.75;2.13;;;;;;;11.99;100.00;98873.16;6075629;19;20034;-73
2023/10/29 05:21:08;;;;;;;3.83;1.30;;;;;;;11.91;100.00;98876.38;6076679;19;20007;-71
2023/10/29 05:23:19;;;;;;;3.25;1.30;;;;;;;11.86;100.00;98895.16;6074714;19;20497;-71
2023/10/29 05:25:30;;;;;;;5.07;1.50;;;;;;;11.84;100.00;98883.84;6075549;19;20013;-71
2023/10/29 05:27:36;;;;;;;3.58;1.05;;;;;;;11.96;100.00;98891.81;6078034;19;20632;-71
2023/10/29 05:29:42;;;;;;;7.05;1.60;;;;;;;11.89;100.00;98885.34;6076962;19;20010;-71
2023/10/29 05:31:46;;;;;;;4.30;1.50;;;;;;;11.92;100.00;98906.16;6076505;19;20498;-71
2023/10/29 05:33:52;;;;;;;5.25;1.90;;;;;;;11.94;100.00;98915.63;6078392;19;20125;-71
2023/10/29 05:35:57;;;;;;;12.73;2.08;;;;;;;11.90;100.00;98926.47;6077054;19;20084;-70
2023/10/29 05:38:05;;;;;;;5.35;1.40;;;;;;;11.91;100.00;98925.56;6076141;19;20015;-71
2023/10/29 05:40:18;;;;;;;5.05;1.30;;;;;;;11.94;100.00;98912.16;6079316;19;20011;-71
2023/10/29 05:42:23;;;;;;;4.10;1.95;;;;;;;11.95;100.00;98922.53;6079190;19;20006;-71
2023/10/29 05:44:34;;;;;;;4.72;1.80;;;;;;;11.89;100.00;98903.75;6077180;19;20035;-72
2023/10/29 05:46:39;;;;;;;2.47;1.23;;;;;;;11.78;100.00;98926.44;6075928;19;20533;-70
2023/10/29 05:48:46;;;;;;;1.35;1.20;;;;;;;11.76;100.00;98938.88;6076095;19;20348;-71
2023/10/29 05:50:52;;;;;;;8.75;1.73;;;;;;;11.74;100.00;98934.69;6075412;19;20573;-70
2023/10/29 05:53:00;;;;;;;11.32;2.97;;;;;;;11.67;100.00;98926.44;6075983;19;20011;-71
2023/10/29 05:55:07;;;;;;;9.18;1.80;;;;;;;11.66;100.00;98932.63;6071462;19;20006;-70
2023/10/29 05:57:17;;;;;;;12.35;2.00;;;;;;;11.67;100.00;98936.13;6076128;19;19999;-72
2023/10/29 05:59:23;;;;;;;6.47;2.13;;;;;;;11.65;100.00;98939.69;6075687;19;20011;-71
2023/10/29 06:01:28;;;;;;;6.65;1.60;;;;;;;11.63;100.00;98940.75;6077287;19;20543;-71
2023/10/29 06:03:36;;;;;;;7.57;1.90;;;;;;;11.57;100.00;98944.69;6075671;19;20011;-70
2023/10/29 06:05:45;;;;;;;7.53;1.90;;;;;;;11.55;100.00;98936.06;6076831;19;20002;-70
2023/10/29 06:07:50;;;;;;;6.68;1.60;;;;;;;11.52;100.00;98932.84;6076719;19;20282;-71
2023/10/29 06:09:58;;;;;;;16.15;2.05;;;;;;;11.53;100.00;98938.00;6074623;19;20576;-71
2023/10/29 06:15:30;;;;;;;;;;;;;;;;;;;;;
2023/10/29 06:18:00;;;;;;;5.10;2.05;;;;;;;11.42;100.00;98951.91;5974235;19;2005072;-72
2023/10/29 06:20:43;;;;;;;7.22;1.92;;;;;;;11.41;100.00;98947.63;6071822;19;20034;-71
2023/10/29 06:22:53;;;;;;;5.13;2.00;;;;;;;11.44;100.00;98943.94;6075538;19;20006;-73
2023/10/29 06:25:09;;;;;;;5.80;1.70;;;;;;;11.35;100.00;98958.59;6070795;19;20007;-72
2023/10/29 06:27:23;;;;;;;7.22;1.77;;;;;;;11.33;100.00;98952.63;5969567;19;2006906;-72
2023/10/29 06:29:30;;;;;;;8.80;2.45;;;;;;;11.32;100.00;98955.34;6073735;19;20007;-72
2023/10/29 06:31:51;;;;;;;4.85;1.60;;;;;;;11.28;100.00;98954.75;6077133;19;20010;-73
2023/10/29 06:34:03;;;;;;;10.27;2.05;;;;;;;11.20;100.00;98980.75;6076240;19;20013;-71
2023/10/29 06:36:11;;;;;;;4.93;1.35;;;;;;;11.21;100.00;98982.44;6077947;19;20017;-71
2023/10/29 06:38:18;;;;;;;10.73;1.58;;;;;;;11.30;100.00;99015.13;6077582;19;20046;-72
2023/10/29 06:40:27;;;;;;;6.70;1.85;;;;;;;11.28;100.00;99014.38;6075726;19;20033;-72
2023/10/29 06:42:32;;;;;;;3.67;1.80;;;;;;;11.18;100.00;99016.84;6074427;19;20039;-72
2023/10/29 06:44:42;;;;;;;7.63;1.95;;;;;;;11.19;100.00;99024.63;6078757;19;20074;-72
2023/10/29 06:47:02;;;;;;;10.90;1.90;;;;;;;11.21;100.00;99027.97;6082273;19;20507;-72
2023/10/29 06:49:18;;;;;;;6.60;2.03;;;;;;;11.19;100.00;99031.69;6082407;19;20487;-72
2023/10/29 06:51:24;;;;;;;3.83;1.38;;;;;;;11.15;100.00;99051.22;6078572;19;20019;-72
2023/10/29 06:53:30;;;;;;;4.97;1.27;;;;;;;11.19;100.00;99045.66;6078000;19;20313;-72
2023/10/29 06:55:42;;;;;;;7.18;1.17;;;;;;;11.13;100.00;99045.25;6083103;19;20023;-71
2023/10/29 06:57:50;;;;;;;7.47;2.03;;;;;;;11.14;100.00;99052.19;6082757;19;20014;-71
2023/10/29 06:59:56;;;;;;;8.55;1.92;;;;;;;11.19;100.00;99055.34;6081176;19;19998;-72
2023/10/29 07:02:03;;;;;;;4.38;1.67;;;;;;;11.19;100.00;99060.59;6082654;19;20309;-71
2023/10/29 07:04:11;;;;;;;7.53;2.05;;;;;;;11.15;100.00;99070.47;6084705;19;20011;-71
2023/10/29 07:06:26;;;;;;;6.65;2.15;;;;;;;11.16;100.00;99066.03;6083155;19;19998;-72
2023/10/29 07:08:28;;;;;;;4.35;1.73;;;;;;;11.25;100.00;99083.81;6084042;19;20018;-73
2023/10/29 07:10:39;;;;;;;6.68;2.05;;;;;;;11.31;100.00;99085.16;6080829;19;20074;-71
2023/10/29 07:12:52;;;;;;;5.45;2.03;;;;;;;11.30;100.00;99084.31;6080747;19;20481;-71
2023/10/29 07:15:00;;;;;;;6.13;1.48;;;;;;;11.30;100.00;99099.25;6080078;19;20458;-72
2023/10/29 07:17:11;;;;;;;5.80;2.22;;;;;;;11.27;100.00;99094.19;6080072;19;20423;-72
2023/10/29 07:19:17;;;;;;;5.55;1.85;;;;;;;11.29;100.00;99108.91;6080849;19;20014;-72
2023/10/29 07:21:24;;;;;;;4.65;1.60;;;;;;;11.35;100.00;99105.88;6079648;19;20018;-71
2023/10/29 07:23:31;;;;;;;9.63;2.20;;;;;;;11.36;100.00;99099.66;6079996;19;20085;-72
2023/10/29 07:25:37;;;;;;;3.83;1.90;;;;;;;11.43;100.00;99105.31;6077850;19;20115;-72
2023/10/29 07:27:47;;;;;;;8.18;2.30;;;;;;;11.50;100.00;99117.06;6077927;19;20633;-72
2023/10/29 07:29:56;;;;;;;7.60;1.90;;;;;;;11.60;100.00;99117.25;6081359;19;20082;-71
2023/10/29 07:32:12;;;;;;;8.93;1.88;;;;;;;11.58;100.00;99114.72;6076693;19;20756;-71
2023/10/29 07:34:21;;;;;;;9.38;2.15;;;;;;;11.62;100.00;99126.72;6078306;19;20470;-71
2023/10/29 07:36:29;;;;;;;7.07;1.80;;;;;;;11.65;100.00;99109.88;6078043;19;20023;-71
2023/10/29 07:38:34;;;;;;;4.55;1.80;;;;;;;11.65;100.00;99131.75;6077753;19;20010;-71
2023/10/29 07:40:42;;;;;;;4.00;2.00;;;;;;;11.70;100.00;99128.78;6080003;19;20066;-72
2023/10/29 07:42:46;;;;;;;6.07;2.55;;;;;;;11.71;100.00;99127.84;6077492;19;20152;-71
2023/10/29 07:44:52;;;;;;;6.78;2.28;;;;;;;11.73;100.00;99127.72;6077265;19;20006;-71
2023/10/29 07:46:58;;;;;;;4.57;2.03;;;;;;;11.59;100.00;99129.56;6078209;19;20003;-70
2023/10/29 07:49:04;;;;;;;3.50;2.13;;;;;;;11.56;100.00;99131.59;6078474;19;20376;-71
2023/10/29 07:51:13;;;;;;;7.72;1.80;;;;;;;11.55;100.00;99141.25;6078656;19;20337;-70
2023/10/29 07:53:18;;;;;;;10.63;2.10;;;;;;;11.56;100.00;99134.22;6073290;19;20030;-71
2023/10/29 07:55:23;;;;;;;6.57;2.50;;;;;;;11.55;100.00;99137.78;6078221;19;20038;-71
2023/10/29 07:57:28;;;;;;;6.28;2.13;;;;;;;11.58;100.00;99146.28;6075129;19;20015;-71
2023/10/29 07:59:36;;;;;;;4.45;1.98;;;;;;;11.53;100.00;99164.22;6068101;19;19998;-71
2023/10/29 08:01:43;;;;;;;3.72;1.70;;;;;;;11.52;100.00;99174.84;6080073;19;20638;-69
2023/10/29 08:03:50;;;;;;;3.92;1.30;;;;;;;11.50;100.00;99180.19;6079849;19;20426;-70
2023/10/29 08:05:53;;;;;;;6.65;2.17;;;;;;;11.52;100.00;99190.63;6080736;19;20006;-70
2023/10/29 08:08:01;;;;;;;6.70;2.85;;;;;;;11.65;100.00;99196.69;6078747;19;20030;-70
2023/10/29 08:10:07;;;;;;;5.72;1.77;;;;;;;11.70;100.00;99178.78;6078947;19;20378;-69
2023/10/29 08:12:12;;;;;;;6.82;2.30;;;;;;;11.77;100.00;99182.66;6077850;19;20038;-69
2023/10/29 08:14:18;;;;;;;5.18;2.50;;;;;;;11.78;100.00;99170.34;6078220;19;20002;-71
2023/10/29 08:16:22;;;;;;;6.22;2.28;;;;;;;11.70;100.00;99184.06;6080328;19;20006;-70
2023/10/29 08:18:27;;;;;;;8.65;2.30;;;;;;;11.68;100.00;99188.56;6079007;19;20002;-70
2023/10/29 08:20:33;;;;;;;5.72;2.00;;;;;;;11.68;100.00;99185.94;6079215;19;20034;-70
2023/10/29 08:22:39;;;;;;;3.65;1.40;;;;;;;11.66;100.00;99177.31;6080791;19;20003;-70
2023/10/29 08:24:50;;;;;;;8.25;1.75;;;;;;;11.61;100.00;99184.69;6076876;19;20010;-70
2023/10/29 08:26:55;;;;;;;9.80;2.30;;;;;;;11.66;100.00;99179.94;6075828;19;20038;-70
2023/10/29 08:29:18;;;;;;;8.60;2.10;;;;;;;11.65;100.00;99183.53;6078500;19;20463;-71
2023/10/29 08:31:24;;;;;;;6.65;1.70;;;;;;;11.69;100.00;99195.53;6080275;19;20024;-70
2023/10/29 08:33:29;;;;;;;4.80;1.70;;;;;;;11.71;100.00;99201.50;6079739;19;20026;-71
2023/10/29 08:35:34;;;;;;;4.93;1.45;;;;;;;11.79;100.00;99185.16;6080155;19;20003;-69
2023/10/29 08:37:37;;;;;;;7.95;1.98;;;;;;;11.80;100.00;99198.22;6080546;19;20019;-71
2023/10/29 08:39:42;;;;;;;6.57;2.03;;;;;;;11.81;100.00;99202.53;6080447;19;20006;-70
2023/10/29 08:41:50;;;;;;;12.27;2.20;;;;;;;11.83;100.00;99208.53;6079307;19;20401;-70
2023/10/29 08:43:57;;;;;;;7.55;1.67;;;;;;;11.86;100.00;99229.41;6080408;19;20435;-70
2023/10/29 08:46:00;;;;;;;4.72;1.65;;;;;;;11.88;100.00;99225.84;6076841;19;20018;-71
2023/10/29 08:48:08;;;;;;;5.35;1.48;;;;;;;11.84;100.00;99225.16;6079824;19;20032;-70
2023/10/29 08:50:13;;;;;;;8.00;1.55;;;;;;;11.82;100.00;99248.97;6078674;19;20380;-71
2023/10/29 08:52:20;;;;;;;8.57;1.98;;;;;;;11.89;100.00;99253.81;6076670;19;20011;-70
2023/10/29 08:54:26;;;;;;;4.57;2.17;;;;;;;11.94;100.00;99270.97;6078591;19;20005;-70
2023/10/29 08:56:31;;;;;;;6.03;1.45;;;;;;;11.97;100.00;99254.94;6080809;19;20013;-71
2023/10/29 08:58:40;;;;;;;10.88;2.35;;;;;;;12.01;100.00;99243.25;6076534;19;20006;-70
2023/10/29 09:00:51;;;;;;;6.40;1.40;;;;;;;12.07;100.00;99268.31;6075817;19;20033;-71
2023/10/29 09:02:56;;;;;;;3.67;1.60;;;;;;;12.15;100.00;99267.75;6079485;19;20003;-69
2023/10/29 09:04:59;;;;;;;11.93;1.88;;;;;;;12.19;100.00;99282.38;6076304;19;20400;-70
2023/10/29 09:07:04;;;;;;;6.82;1.45;;;;;;;12.17;100.00;99279.03;6072561;19;20358;-70
2023/10/29 09:09:06;;;;;;;10.38;1.92;;;;;;;12.16;100.00;99288.69;6076194;19;20122;-70
2023/10/29 09:11:16;;;;;;;2.20;1.40;;;;;;;12.15;100.00;99287.03;6077144;19;20013;-69
2023/10/29 09:13:23;;;;;;;6.55;1.55;;;;;;;12.18;100.00;99275.44;6079161;19;20075;-71
2023/10/29 09:15:31;;;;;;;4.20;1.65;;;;;;;12.17;100.00;99269.34;6074912;19;20010;-69
2023/10/29 09:17:36;;;;;;;9.48;2.10;;;;;;;12.17;100.00;99277.22;6074920;19;20011;-70
2023/10/29 09:19:41;;;;;;;7.20;1.73;;;;;;;12.22;100.00;99267.22;6075247;19;20006;-70
2023/10/29 09:21:47;;;;;;;8.25;1.73;;;;;;;12.25;100.00;99260.88;6066789;19;20510;-69
2023/10/29 09:23:52;;;;;;;11.18;2.25;;;;;;;12.27;100.00;99267.72;6076381;19;20010;-69
2023/10/29 09:26:00;;;;;;;7.97;1.58;;;;;;;12.30;100.00;99274.56;6077306;19;20370;-69
2023/10/29 09:28:08;;;;;;;17.77;2.10;;;;;;;12.34;100.00;99275.16;6076735;19;20019;-69
2023/10/29 09:30:14;;;;;;;5.35;1.73;;;;;;;12.30;100.00;99279.81;6075117;19;20105;-70
2023/10/29 09:32:23;;;;;;;13.40;2.45;;;;;;;12.30;100.00;99285.94;6077247;19;20019;-69
2023/10/29 09:34:26;;;;;;;10.43;1.85;;;;;;;12.32;100.00;99288.44;6075549;19;20605;-70
2023/10/29 09:36:31;;;;;;;6.75;1.77;;;;;;;12.32;100.00;99298.13;6074776;19;20081;-69
2023/10/29 09:38:37;;;;;;;7.13;1.88;;;;;;;12.28;100.00;99293.09;6077930;19;20523;-70
2023/10/29 09:40:43;;;;;;;13.85;2.35;;;;;;;12.34;100.00;99288.34;6079696;19;20477;-69
2023/10/29 09:42:55;;;;;;;9.43;2.33;;;;;;;12.34;100.00;99283.06;6077516;19;20475;-70
2023/10/29 09:45:02;;;;;;;7.68;1.85;;;;;;;12.35;100.00;99279.47;6074001;19;20010;-70
2023/10/29 09:47:17;;;;;;;9.60;2.20;;;;;;;12.39;100.00;99270.41;6076654;19;20007;-70
2023/10/29 09:49:25;;;;;;;6.75;1.70;;;;;;;12.38;100.00;99285.38;6076394;19;20459;-70
2023/10/29 09:51:32;;;;;;;8.60;1.90;;;;;;;12.36;100.00;99278.53;6072972;19;20086;-71
2023/10/29 09:53:39;;;;;;;8.43;2.05;;;;;;;12.39;100.00;99278.31;6071826;19;20010;-71
2023/10/29 09:55:44;;;;;;;12.38;2.80;;;;;;;12.41;100.00;99271.97;6075509;19;20479;-71
2023/10/29 09:57:50;;;;;;;4.95;2.00;;;;;;;12.41;100.00;99276.41;6074545;19;20046;-71
2023/10/29 09:59:56;;;;;;;13.68;2.65;;;;;;;12.45;100.00;99269.94;6073676;19;20671;-70